sensor_id;sensor_type;location;lat;lon;timestamp;pressure;altitude;pressure_sealevel;temperature;humidity
83483;BME280;73420;32.678;-85.380;2024-02-26T00:00:15;98939.28;;;24.16;11.50
83483;BME280;73420;32.678;-85.380;2024-02-26T00:02:40;98943.59;;;24.15;12.32
83483;BME280;73420;32.678;-85.380;2024-02-26T00:05:07;98941.97;;;23.99;12.29
83483;BME280;73420;32.678;-85.380;2024-02-26T00:07:31;98940.14;;;23.97;12.76
83483;BME280;73420;32.678;-85.380;2024-02-26T00:09:57;98939.39;;;23.83;12.87
83483;BME280;73420;32.678;-85.380;2024-02-26T00:12:23;98941.56;;;23.73;12.23
83483;BME280;73420;32.678;-85.380;2024-02-26T00:14:47;98943.73;;;23.68;12.56
83483;BME280;73420;32.678;-85.380;2024-02-26T00:17:14;98944.60;;;23.83;12.78
83483;BME280;73420;32.678;-85.380;2024-02-26T00:19:39;98944.84;;;23.48;12.35
83483;BME280;73420;32.678;-85.380;2024-02-26T00:22:04;98945.24;;;23.50;12.29
83483;BME280;73420;32.678;-85.380;2024-02-26T00:24:30;98947.41;;;23.97;12.43
83483;BME280;73420;32.678;-85.380;2024-02-26T00:26:55;98951.42;;;23.54;12.21
83483;BME280;73420;32.678;-85.380;2024-02-26T00:29:20;98953.54;;;23.81;11.89
83483;BME280;73420;32.678;-85.380;2024-02-26T00:31:46;98955.09;;;23.60;12.02
83483;BME280;73420;32.678;-85.380;2024-02-26T00:34:11;98957.71;;;23.80;12.40
83483;BME280;73420;32.678;-85.380;2024-02-26T00:36:37;98956.57;;;23.79;12.55
83483;BME280;73420;32.678;-85.380;2024-02-26T00:39:03;98957.17;;;23.23;12.36
83483;BME280;73420;32.678;-85.380;2024-02-26T00:41:28;98957.51;;;23.70;12.50
83483;BME280;73420;32.678;-85.380;2024-02-26T00:43:53;98953.32;;;23.38;12.37
83483;BME280;73420;32.678;-85.380;2024-02-26T00:46:19;98950.72;;;23.32;12.46
83483;BME280;73420;32.678;-85.380;2024-02-26T00:48:44;98950.53;;;23.24;12.29
83483;BME280;73420;32.678;-85.380;2024-02-26T00:51:10;98954.87;;;23.25;12.19
83483;BME280;73420;32.678;-85.380;2024-02-26T00:53:37;98954.07;;;23.17;12.19
83483;BME280;73420;32.678;-85.380;2024-02-26T00:56:01;98956.73;;;23.28;12.37
83483;BME280;73420;32.678;-85.380;2024-02-26T00:58:27;98957.17;;;22.92;12.14
83483;BME280;73420;32.678;-85.380;2024-02-26T01:00:52;98957.93;;;22.97;12.23
83483;BME280;73420;32.678;-85.380;2024-02-26T01:03:18;98958.99;;;23.34;12.34
83483;BME280;73420;32.678;-85.380;2024-02-26T01:05:44;98963.85;;;23.24;12.31
83483;BME280;73420;32.678;-85.380;2024-02-26T01:08:11;98965.70;;;23.47;12.13
83483;BME280;73420;32.678;-85.380;2024-02-26T01:10:34;98967.04;;;23.07;12.19
83483;BME280;73420;32.678;-85.380;2024-02-26T01:13:00;98973.51;;;23.27;12.25
83483;BME280;73420;32.678;-85.380;2024-02-26T01:15:25;98981.68;;;22.57;12.14
83483;BME280;73420;32.678;-85.380;2024-02-26T01:17:52;98985.30;;;23.04;12.07
83483;BME280;73420;32.678;-85.380;2024-02-26T01:20:16;98985.56;;;22.99;12.28
83483;BME280;73420;32.678;-85.380;2024-02-26T01:22:42;98988.26;;;22.69;12.14
83483;BME280;73420;32.678;-85.380;2024-02-26T01:25:08;98984.48;;;23.09;12.30
83483;BME280;73420;32.678;-85.380;2024-02-26T01:27:33;98984.40;;;22.58;12.41
83483;BME280;73420;32.678;-85.380;2024-02-26T01:29:58;98986.98;;;22.81;12.29
83483;BME280;73420;32.678;-85.380;2024-02-26T01:32:24;98990.70;;;22.62;12.58
83483;BME280;73420;32.678;-85.380;2024-02-26T01:34:49;98993.28;;;22.85;12.43
83483;BME280;73420;32.678;-85.380;2024-02-26T01:37:14;98994.92;;;22.54;12.66
83483;BME280;73420;32.678;-85.380;2024-02-26T01:39:39;98997.00;;;22.85;12.49
83483;BME280;73420;32.678;-85.380;2024-02-26T01:42:08;98999.74;;;22.80;12.45
83483;BME280;73420;32.678;-85.380;2024-02-26T01:44:30;99004.48;;;22.70;12.46
83483;BME280;73420;32.678;-85.380;2024-02-26T01:46:56;99010.62;;;22.63;12.44
83483;BME280;73420;32.678;-85.380;2024-02-26T01:49:22;99014.86;;;22.62;12.32
83483;BME280;73420;32.678;-85.380;2024-02-26T01:51:48;99017.05;;;22.39;12.48
83483;BME280;73420;32.678;-85.380;2024-02-26T01:54:18;99017.69;;;22.67;12.46
83483;BME280;73420;32.678;-85.380;2024-02-26T01:56:39;99018.23;;;22.55;12.28
83483;BME280;73420;32.678;-85.380;2024-02-26T01:59:05;99020.70;;;22.38;12.39
83483;BME280;73420;32.678;-85.380;2024-02-26T02:01:31;99019.88;;;22.66;12.58
83483;BME280;73420;32.678;-85.380;2024-02-26T02:03:57;99013.23;;;22.44;12.41
83483;BME280;73420;32.678;-85.380;2024-02-26T02:06:26;99009.56;;;22.35;12.40
83483;BME280;73420;32.678;-85.380;2024-02-26T02:08:46;99008.30;;;22.31;12.59
83483;BME280;73420;32.678;-85.380;2024-02-26T02:11:11;99010.23;;;22.23;12.40
83483;BME280;73420;32.678;-85.380;2024-02-26T02:13:37;99008.17;;;22.18;12.40
83483;BME280;73420;32.678;-85.380;2024-02-26T02:16:03;99009.63;;;22.09;12.35
83483;BME280;73420;32.678;-85.380;2024-02-26T02:18:28;99011.96;;;22.29;12.29
83483;BME280;73420;32.678;-85.380;2024-02-26T02:20:54;99013.77;;;22.09;12.21
83483;BME280;73420;32.678;-85.380;2024-02-26T02:23:19;99018.43;;;22.39;12.33
83483;BME280;73420;32.678;-85.380;2024-02-26T02:25:44;99026.10;;;21.55;12.28
83483;BME280;73420;32.678;-85.380;2024-02-26T02:28:10;99022.48;;;21.83;12.08
83483;BME280;73420;32.678;-85.380;2024-02-26T02:30:38;99026.45;;;22.28;12.11
83483;BME280;73420;32.678;-85.380;2024-02-26T02:33:00;99024.87;;;22.11;12.07
83483;BME280;73420;32.678;-85.380;2024-02-26T02:35:25;99026.09;;;21.85;12.34
83483;BME280;73420;32.678;-85.380;2024-02-26T02:37:52;99023.79;;;22.14;12.17
83483;BME280;73420;32.678;-85.380;2024-02-26T02:40:16;99022.23;;;22.18;12.23
83483;BME280;73420;32.678;-85.380;2024-02-26T02:42:45;99020.15;;;21.93;12.18
83483;BME280;73420;32.678;-85.380;2024-02-26T02:45:08;99024.43;;;22.06;12.18
83483;BME280;73420;32.678;-85.380;2024-02-26T02:47:36;99023.96;;;22.03;12.19
83483;BME280;73420;32.678;-85.380;2024-02-26T02:49:58;99022.93;;;22.21;12.29
83483;BME280;73420;32.678;-85.380;2024-02-26T02:52:24;99027.35;;;22.09;12.17
83483;BME280;73420;32.678;-85.380;2024-02-26T02:54:53;99024.26;;;22.04;11.94
83483;BME280;73420;32.678;-85.380;2024-02-26T02:57:15;99027.42;;;22.12;12.11
83483;BME280;73420;32.678;-85.380;2024-02-26T02:59:40;99031.26;;;21.96;12.18
83483;BME280;73420;32.678;-85.380;2024-02-26T03:02:07;99034.44;;;21.88;12.14
83483;BME280;73420;32.678;-85.380;2024-02-26T03:04:31;99039.71;;;21.86;12.25
83483;BME280;73420;32.678;-85.380;2024-02-26T03:06:56;99041.03;;;21.99;12.03
83483;BME280;73420;32.678;-85.380;2024-02-26T03:09:22;99045.91;;;22.21;12.18
83483;BME280;73420;32.678;-85.380;2024-02-26T03:11:47;99049.66;;;22.20;12.25
83483;BME280;73420;32.678;-85.380;2024-02-26T03:14:13;99049.90;;;21.87;12.58
83483;BME280;73420;32.678;-85.380;2024-02-26T03:16:38;99054.54;;;21.77;12.42
83483;BME280;73420;32.678;-85.380;2024-02-26T03:19:04;99052.61;;;22.12;12.55
83483;BME280;73420;32.678;-85.380;2024-02-26T03:21:29;99053.81;;;21.75;12.80
83483;BME280;73420;32.678;-85.380;2024-02-26T03:23:54;99051.04;;;21.70;12.72
83483;BME280;73420;32.678;-85.380;2024-02-26T03:26:19;99049.05;;;22.10;12.58
83483;BME280;73420;32.678;-85.380;2024-02-26T03:28:45;99048.89;;;21.79;12.62
83483;BME280;73420;32.678;-85.380;2024-02-26T03:31:10;99048.03;;;21.57;12.59
83483;BME280;73420;32.678;-85.380;2024-02-26T03:33:36;99045.46;;;21.51;12.97
83483;BME280;73420;32.678;-85.380;2024-02-26T03:36:02;99046.70;;;21.98;13.06
83483;BME280;73420;32.678;-85.380;2024-02-26T03:38:27;99042.85;;;21.72;13.08
83483;BME280;73420;32.678;-85.380;2024-02-26T03:40:52;99037.36;;;21.63;13.03
83483;BME280;73420;32.678;-85.380;2024-02-26T03:43:22;99035.97;;;21.48;12.95
83483;BME280;73420;32.678;-85.380;2024-02-26T03:45:43;99035.18;;;21.45;13.21
83483;BME280;73420;32.678;-85.380;2024-02-26T03:48:08;99035.75;;;21.35;13.22
83483;BME280;73420;32.678;-85.380;2024-02-26T03:50:34;99035.92;;;21.66;13.28
83483;BME280;73420;32.678;-85.380;2024-02-26T03:52:59;99037.56;;;21.15;13.27
83483;BME280;73420;32.678;-85.380;2024-02-26T03:55:28;99035.81;;;21.49;13.38
83483;BME280;73420;32.678;-85.380;2024-02-26T03:57:50;99038.40;;;21.49;13.52
83483;BME280;73420;32.678;-85.380;2024-02-26T04:00:16;99038.80;;;21.67;13.45
83483;BME280;73420;32.678;-85.380;2024-02-26T04:02:42;99037.90;;;21.60;13.51
83483;BME280;73420;32.678;-85.380;2024-02-26T04:05:10;99036.81;;;21.44;13.47
83483;BME280;73420;32.678;-85.380;2024-02-26T04:07:33;99035.72;;;21.45;13.69
83483;BME280;73420;32.678;-85.380;2024-02-26T04:09:57;99037.83;;;21.16;13.33
83483;BME280;73420;32.678;-85.380;2024-02-26T04:12:23;99039.63;;;21.19;13.39
83483;BME280;73420;32.678;-85.380;2024-02-26T04:14:48;99036.80;;;21.45;13.68
83483;BME280;73420;32.678;-85.380;2024-02-26T04:17:13;99036.90;;;21.37;13.86
83483;BME280;73420;32.678;-85.380;2024-02-26T04:19:39;99042.23;;;21.31;13.40
83483;BME280;73420;32.678;-85.380;2024-02-26T04:22:05;99046.01;;;21.04;13.47
83483;BME280;73420;32.678;-85.380;2024-02-26T04:24:30;99047.30;;;21.26;13.57
83483;BME280;73420;32.678;-85.380;2024-02-26T04:26:55;99044.76;;;21.34;13.63
83483;BME280;73420;32.678;-85.380;2024-02-26T04:29:21;99040.67;;;21.46;13.58
83483;BME280;73420;32.678;-85.380;2024-02-26T04:31:48;99035.81;;;21.09;13.73
83483;BME280;73420;32.678;-85.380;2024-02-26T04:34:12;99036.46;;;21.01;13.83
83483;BME280;73420;32.678;-85.380;2024-02-26T04:36:37;99032.02;;;20.84;13.73
83483;BME280;73420;32.678;-85.380;2024-02-26T04:39:08;99034.46;;;20.87;13.93
83483;BME280;73420;32.678;-85.380;2024-02-26T04:41:28;99046.46;;;20.64;13.87
83483;BME280;73420;32.678;-85.380;2024-02-26T04:43:55;99050.10;;;20.50;13.96
83483;BME280;73420;32.678;-85.380;2024-02-26T04:46:19;99049.96;;;20.69;14.54
83483;BME280;73420;32.678;-85.380;2024-02-26T04:48:44;99044.62;;;21.03;14.12
83483;BME280;73420;32.678;-85.380;2024-02-26T04:51:10;99046.50;;;20.56;13.70
83483;BME280;73420;32.678;-85.380;2024-02-26T04:53:36;99044.31;;;20.99;13.82
83483;BME280;73420;32.678;-85.380;2024-02-26T04:56:03;99041.06;;;20.37;14.49
83483;BME280;73420;32.678;-85.380;2024-02-26T04:58:26;99043.96;;;20.32;13.93
83483;BME280;73420;32.678;-85.380;2024-02-26T05:00:52;99048.25;;;20.36;14.34
83483;BME280;73420;32.678;-85.380;2024-02-26T05:03:17;99051.11;;;20.51;14.14
83483;BME280;73420;32.678;-85.380;2024-02-26T05:05:43;99049.88;;;20.99;13.98
83483;BME280;73420;32.678;-85.380;2024-02-26T05:08:08;99050.53;;;20.86;14.11
83483;BME280;73420;32.678;-85.380;2024-02-26T05:10:34;99044.28;;;20.37;14.19
83483;BME280;73420;32.678;-85.380;2024-02-26T05:12:59;99045.75;;;20.62;13.98
83483;BME280;73420;32.678;-85.380;2024-02-26T05:15:25;99045.37;;;20.52;14.23
83483;BME280;73420;32.678;-85.380;2024-02-26T05:17:50;99048.89;;;20.61;14.01
83483;BME280;73420;32.678;-85.380;2024-02-26T05:20:16;99049.66;;;20.52;14.23
83483;BME280;73420;32.678;-85.380;2024-02-26T05:22:41;99051.89;;;20.61;14.05
83483;BME280;73420;32.678;-85.380;2024-02-26T05:25:07;99051.10;;;20.54;14.02
83483;BME280;73420;32.678;-85.380;2024-02-26T05:27:32;99054.29;;;20.90;13.96
83483;BME280;73420;32.678;-85.380;2024-02-26T05:29:57;99056.16;;;20.64;14.20
83483;BME280;73420;32.678;-85.380;2024-02-26T05:32:23;99055.80;;;20.48;14.15
83483;BME280;73420;32.678;-85.380;2024-02-26T05:34:49;99056.84;;;20.57;14.18
83483;BME280;73420;32.678;-85.380;2024-02-26T05:37:14;99052.18;;;20.41;14.27
83483;BME280;73420;32.678;-85.380;2024-02-26T05:39:39;99055.29;;;20.61;14.37
83483;BME280;73420;32.678;-85.380;2024-02-26T05:42:05;99056.95;;;20.09;14.24
83483;BME280;73420;32.678;-85.380;2024-02-26T05:44:30;99059.40;;;20.47;14.42
83483;BME280;73420;32.678;-85.380;2024-02-26T05:46:56;99060.61;;;20.37;14.86
83483;BME280;73420;32.678;-85.380;2024-02-26T05:49:22;99059.12;;;20.34;14.80
83483;BME280;73420;32.678;-85.380;2024-02-26T05:51:46;99057.18;;;20.31;14.67
83483;BME280;73420;32.678;-85.380;2024-02-26T05:54:12;99056.97;;;20.13;14.80
83483;BME280;73420;32.678;-85.380;2024-02-26T05:56:37;99055.51;;;20.34;15.09
83483;BME280;73420;32.678;-85.380;2024-02-26T05:59:02;99052.82;;;20.39;15.14
83483;BME280;73420;32.678;-85.380;2024-02-26T06:01:27;99051.61;;;20.08;15.42
83483;BME280;73420;32.678;-85.380;2024-02-26T06:03:52;99048.05;;;20.18;15.24
83483;BME280;73420;32.678;-85.380;2024-02-26T06:06:18;99046.42;;;20.53;15.03
83483;BME280;73420;32.678;-85.380;2024-02-26T06:08:44;99046.78;;;20.48;14.98
83483;BME280;73420;32.678;-85.380;2024-02-26T06:11:09;99044.96;;;20.18;15.49
83483;BME280;73420;32.678;-85.380;2024-02-26T06:13:35;99046.25;;;20.10;15.19
83483;BME280;73420;32.678;-85.380;2024-02-26T06:16:00;99047.13;;;20.31;15.43
83483;BME280;73420;32.678;-85.380;2024-02-26T06:18:25;99048.47;;;20.07;15.70
83483;BME280;73420;32.678;-85.380;2024-02-26T06:20:51;99049.13;;;19.99;15.34
83483;BME280;73420;32.678;-85.380;2024-02-26T06:23:16;99051.41;;;20.19;15.43
83483;BME280;73420;32.678;-85.380;2024-02-26T06:25:42;99053.88;;;20.19;15.60
83483;BME280;73420;32.678;-85.380;2024-02-26T06:28:07;99053.79;;;20.12;15.65
83483;BME280;73420;32.678;-85.380;2024-02-26T06:30:33;99055.91;;;19.91;15.44
83483;BME280;73420;32.678;-85.380;2024-02-26T06:33:04;99058.31;;;20.02;15.59
83483;BME280;73420;32.678;-85.380;2024-02-26T06:35:23;99060.78;;;20.00;16.35
83483;BME280;73420;32.678;-85.380;2024-02-26T06:37:49;99060.22;;;19.47;16.29
83483;BME280;73420;32.678;-85.380;2024-02-26T06:40:14;99060.87;;;19.77;15.99
83483;BME280;73420;32.678;-85.380;2024-02-26T06:42:39;99063.70;;;19.81;15.92
83483;BME280;73420;32.678;-85.380;2024-02-26T06:45:06;99058.55;;;19.73;16.42
83483;BME280;73420;32.678;-85.380;2024-02-26T06:47:31;99057.55;;;19.63;16.13
83483;BME280;73420;32.678;-85.380;2024-02-26T06:49:56;99052.32;;;19.84;16.65
83483;BME280;73420;32.678;-85.380;2024-02-26T06:52:22;99052.45;;;19.52;16.32
83483;BME280;73420;32.678;-85.380;2024-02-26T06:54:47;99051.29;;;19.46;16.32
83483;BME280;73420;32.678;-85.380;2024-02-26T06:57:14;99053.58;;;19.72;16.49
83483;BME280;73420;32.678;-85.380;2024-02-26T06:59:38;99058.87;;;19.75;16.48
83483;BME280;73420;32.678;-85.380;2024-02-26T07:02:03;99061.98;;;19.63;17.02
83483;BME280;73420;32.678;-85.380;2024-02-26T07:04:28;99061.97;;;19.81;16.33
83483;BME280;73420;32.678;-85.380;2024-02-26T07:06:53;99061.13;;;19.22;17.22
83483;BME280;73420;32.678;-85.380;2024-02-26T07:09:24;99059.05;;;19.61;17.08
83483;BME280;73420;32.678;-85.380;2024-02-26T07:11:44;99058.86;;;19.10;16.65
83483;BME280;73420;32.678;-85.380;2024-02-26T07:14:10;99060.41;;;19.39;16.72
83483;BME280;73420;32.678;-85.380;2024-02-26T07:16:35;99065.88;;;19.34;16.96
83483;BME280;73420;32.678;-85.380;2024-02-26T07:19:01;99065.63;;;19.41;16.68
83483;BME280;73420;32.678;-85.380;2024-02-26T07:21:26;99070.45;;;19.26;16.95
83483;BME280;73420;32.678;-85.380;2024-02-26T07:23:52;99072.20;;;19.25;17.11
83483;BME280;73420;32.678;-85.380;2024-02-26T07:26:17;99075.88;;;19.21;17.28
83483;BME280;73420;32.678;-85.380;2024-02-26T07:28:43;99076.03;;;18.94;16.92
83483;BME280;73420;32.678;-85.380;2024-02-26T07:31:08;99068.20;;;18.83;17.04
83483;BME280;73420;32.678;-85.380;2024-02-26T07:33:34;99069.51;;;19.06;17.28
83483;BME280;73420;32.678;-85.380;2024-02-26T07:35:59;99071.53;;;19.03;17.42
83483;BME280;73420;32.678;-85.380;2024-02-26T07:38:24;99070.40;;;18.96;17.28
83483;BME280;73420;32.678;-85.380;2024-02-26T07:40:50;99069.35;;;18.82;17.41
83483;BME280;73420;32.678;-85.380;2024-02-26T07:43:15;99064.70;;;18.76;17.57
83483;BME280;73420;32.678;-85.380;2024-02-26T07:45:45;99068.20;;;18.60;17.55
83483;BME280;73420;32.678;-85.380;2024-02-26T07:48:06;99067.08;;;18.70;17.43
83483;BME280;73420;32.678;-85.380;2024-02-26T07:50:31;99068.32;;;18.92;17.96
83483;BME280;73420;32.678;-85.380;2024-02-26T07:52:56;99072.13;;;18.61;17.50
83483;BME280;73420;32.678;-85.380;2024-02-26T07:55:21;99071.32;;;18.61;17.73
83483;BME280;73420;32.678;-85.380;2024-02-26T07:57:47;99073.40;;;19.16;17.35
83483;BME280;73420;32.678;-85.380;2024-02-26T08:00:13;99072.18;;;18.53;18.38
83483;BME280;73420;32.678;-85.380;2024-02-26T08:02:38;99065.91;;;18.51;17.49
83483;BME280;73420;32.678;-85.380;2024-02-26T08:05:04;99067.60;;;19.04;17.52
83483;BME280;73420;32.678;-85.380;2024-02-26T08:07:29;99067.92;;;18.57;17.73
83483;BME280;73420;32.678;-85.380;2024-02-26T08:09:57;99064.37;;;18.64;17.44
83483;BME280;73420;32.678;-85.380;2024-02-26T08:12:20;99062.86;;;18.72;17.86
83483;BME280;73420;32.678;-85.380;2024-02-26T08:14:45;99060.62;;;18.43;17.87
83483;BME280;73420;32.678;-85.380;2024-02-26T08:17:10;99062.30;;;18.48;17.58
83483;BME280;73420;32.678;-85.380;2024-02-26T08:19:36;99057.75;;;18.63;18.05
83483;BME280;73420;32.678;-85.380;2024-02-26T08:22:05;99050.04;;;18.27;18.45
83483;BME280;73420;32.678;-85.380;2024-02-26T08:24:26;99046.87;;;18.45;18.15
83483;BME280;73420;32.678;-85.380;2024-02-26T08:26:52;99037.85;;;18.61;18.49
83483;BME280;73420;32.678;-85.380;2024-02-26T08:29:18;99034.73;;;18.49;19.27
83483;BME280;73420;32.678;-85.380;2024-02-26T08:31:43;99038.75;;;18.05;18.71
83483;BME280;73420;32.678;-85.380;2024-02-26T08:34:12;99036.79;;;18.34;18.60
83483;BME280;73420;32.678;-85.380;2024-02-26T08:36:34;99032.76;;;18.49;19.25
83483;BME280;73420;32.678;-85.380;2024-02-26T08:38:59;99034.57;;;18.41;18.54
83483;BME280;73420;32.678;-85.380;2024-02-26T08:41:25;99038.81;;;18.42;18.85
83483;BME280;73420;32.678;-85.380;2024-02-26T08:43:50;99037.93;;;18.36;18.64
83483;BME280;73420;32.678;-85.380;2024-02-26T08:46:16;99041.98;;;18.14;18.96
83483;BME280;73420;32.678;-85.380;2024-02-26T08:48:41;99043.19;;;18.18;19.00
83483;BME280;73420;32.678;-85.380;2024-02-26T08:51:07;99042.21;;;18.23;19.07
83483;BME280;73420;32.678;-85.380;2024-02-26T08:53:32;99039.93;;;17.79;19.26
83483;BME280;73420;32.678;-85.380;2024-02-26T08:55:58;99037.99;;;18.29;19.42
83483;BME280;73420;32.678;-85.380;2024-02-26T08:58:29;99037.69;;;18.31;18.75
83483;BME280;73420;32.678;-85.380;2024-02-26T09:00:49;99042.74;;;18.39;18.84
83483;BME280;73420;32.678;-85.380;2024-02-26T09:03:15;99040.06;;;18.39;18.73
83483;BME280;73420;32.678;-85.380;2024-02-26T09:05:40;99037.96;;;17.89;19.38
83483;BME280;73420;32.678;-85.380;2024-02-26T09:08:06;99038.83;;;18.13;19.51
83483;BME280;73420;32.678;-85.380;2024-02-26T09:10:38;99039.98;;;18.14;19.51
83483;BME280;73420;32.678;-85.380;2024-02-26T09:12:56;99037.57;;;18.19;18.81
83483;BME280;73420;32.678;-85.380;2024-02-26T09:15:21;99035.00;;;17.91;18.80
83483;BME280;73420;32.678;-85.380;2024-02-26T09:17:47;99038.99;;;17.92;19.10
83483;BME280;73420;32.678;-85.380;2024-02-26T09:20:12;99034.96;;;17.90;18.84
83483;BME280;73420;32.678;-85.380;2024-02-26T09:22:38;99032.01;;;18.07;18.95
83483;BME280;73420;32.678;-85.380;2024-02-26T09:25:04;99030.17;;;18.14;18.95
83483;BME280;73420;32.678;-85.380;2024-02-26T09:27:29;99026.65;;;18.10;19.06
83483;BME280;73420;32.678;-85.380;2024-02-26T09:29:55;99023.58;;;17.97;19.36
83483;BME280;73420;32.678;-85.380;2024-02-26T09:32:20;99021.58;;;17.74;19.45
83483;BME280;73420;32.678;-85.380;2024-02-26T09:34:45;99021.19;;;17.92;19.23
83483;BME280;73420;32.678;-85.380;2024-02-26T09:37:10;99022.39;;;17.93;19.30
83483;BME280;73420;32.678;-85.380;2024-02-26T09:39:36;99021.18;;;17.91;19.29
83483;BME280;73420;32.678;-85.380;2024-02-26T09:42:05;99021.10;;;17.88;19.53
83483;BME280;73420;32.678;-85.380;2024-02-26T09:44:29;99021.17;;;17.74;19.43
83483;BME280;73420;32.678;-85.380;2024-02-26T09:46:54;99023.56;;;17.55;19.33
83483;BME280;73420;32.678;-85.380;2024-02-26T09:49:20;99025.73;;;17.84;19.22
83483;BME280;73420;32.678;-85.380;2024-02-26T09:51:44;99028.23;;;18.04;19.76
83483;BME280;73420;32.678;-85.380;2024-02-26T09:54:10;99029.85;;;17.95;19.30
83483;BME280;73420;32.678;-85.380;2024-02-26T09:56:36;99031.17;;;17.95;19.10
83483;BME280;73420;32.678;-85.380;2024-02-26T09:59:02;99028.60;;;17.66;19.16
83483;BME280;73420;32.678;-85.380;2024-02-26T10:01:26;99025.82;;;17.69;19.09
83483;BME280;73420;32.678;-85.380;2024-02-26T10:03:55;99028.05;;;17.93;19.26
83483;BME280;73420;32.678;-85.380;2024-02-26T10:06:16;99029.77;;;17.65;19.64
83483;BME280;73420;32.678;-85.380;2024-02-26T10:08:42;99031.82;;;17.58;19.36
83483;BME280;73420;32.678;-85.380;2024-02-26T10:11:13;99030.23;;;17.79;19.86
83483;BME280;73420;32.678;-85.380;2024-02-26T10:13:33;99029.40;;;17.55;19.85
83483;BME280;73420;32.678;-85.380;2024-02-26T10:16:00;99026.76;;;17.44;20.07
83483;BME280;73420;32.678;-85.380;2024-02-26T10:18:24;99030.35;;;17.26;19.90
83483;BME280;73420;32.678;-85.380;2024-02-26T10:20:59;99027.08;;;17.23;20.45
83483;BME280;73420;32.678;-85.380;2024-02-26T10:23:19;99023.49;;;17.12;20.38
83483;BME280;73420;32.678;-85.380;2024-02-26T10:28:07;99024.77;;;17.58;20.21
83483;BME280;73420;32.678;-85.380;2024-02-26T10:30:36;99024.72;;;17.19;20.47
83483;BME280;73420;32.678;-85.380;2024-02-26T10:32:59;99024.78;;;17.07;20.12
83483;BME280;73420;32.678;-85.380;2024-02-26T10:35:24;99024.28;;;17.36;20.58
83483;BME280;73420;32.678;-85.380;2024-02-26T10:37:49;99022.08;;;17.18;20.10
83483;BME280;73420;32.678;-85.380;2024-02-26T10:40:15;99022.05;;;17.20;20.39
83483;BME280;73420;32.678;-85.380;2024-02-26T10:42:41;99023.03;;;17.44;20.22
83483;BME280;73420;32.678;-85.380;2024-02-26T10:45:06;99029.97;;;17.49;20.05
83483;BME280;73420;32.678;-85.380;2024-02-26T10:47:37;99031.73;;;17.15;20.09
83483;BME280;73420;32.678;-85.380;2024-02-26T10:49:56;99035.48;;;17.40;19.75
83483;BME280;73420;32.678;-85.380;2024-02-26T10:52:23;99037.91;;;17.21;19.96
83483;BME280;73420;32.678;-85.380;2024-02-26T10:54:48;99037.86;;;17.37;20.29
83483;BME280;73420;32.678;-85.380;2024-02-26T10:57:15;99037.52;;;17.04;20.36
83483;BME280;73420;32.678;-85.380;2024-02-26T10:59:42;99036.19;;;17.04;20.39
83483;BME280;73420;32.678;-85.380;2024-02-26T11:02:04;99040.06;;;16.98;20.26
83483;BME280;73420;32.678;-85.380;2024-02-26T11:04:29;99040.14;;;17.11;20.29
83483;BME280;73420;32.678;-85.380;2024-02-26T11:06:57;99039.97;;;16.94;20.66
83483;BME280;73420;32.678;-85.380;2024-02-26T11:09:21;99042.34;;;17.25;20.07
83483;BME280;73420;32.678;-85.380;2024-02-26T11:11:47;99042.44;;;17.20;19.87
83483;BME280;73420;32.678;-85.380;2024-02-26T11:14:12;99041.60;;;16.98;19.95
83483;BME280;73420;32.678;-85.380;2024-02-26T11:16:38;99040.82;;;17.05;19.90
83483;BME280;73420;32.678;-85.380;2024-02-26T11:19:02;99041.22;;;17.06;19.82
83483;BME280;73420;32.678;-85.380;2024-02-26T11:21:27;99041.95;;;17.11;19.86
83483;BME280;73420;32.678;-85.380;2024-02-26T11:23:53;99038.31;;;17.11;20.48
83483;BME280;73420;32.678;-85.380;2024-02-26T11:26:19;99039.40;;;16.96;20.57
83483;BME280;73420;32.678;-85.380;2024-02-26T11:28:44;99037.31;;;16.65;20.72
83483;BME280;73420;32.678;-85.380;2024-02-26T11:31:10;99038.21;;;16.63;20.60
83483;BME280;73420;32.678;-85.380;2024-02-26T11:33:36;99038.12;;;16.58;20.69
83483;BME280;73420;32.678;-85.380;2024-02-26T11:36:02;99038.72;;;16.64;20.53
83483;BME280;73420;32.678;-85.380;2024-02-26T11:38:28;99036.31;;;16.62;20.26
83483;BME280;73420;32.678;-85.380;2024-02-26T11:40:53;99037.04;;;16.63;20.14
83483;BME280;73420;32.678;-85.380;2024-02-26T11:43:18;99040.87;;;16.56;20.77
83483;BME280;73420;32.678;-85.380;2024-02-26T11:45:49;99045.02;;;16.82;20.04
83483;BME280;73420;32.678;-85.380;2024-02-26T11:48:11;99048.29;;;16.70;19.93
83483;BME280;73420;32.678;-85.380;2024-02-26T11:50:35;99047.65;;;16.77;20.30
83483;BME280;73420;32.678;-85.380;2024-02-26T11:53:19;99048.60;;;16.81;20.13
83483;BME280;73420;32.678;-85.380;2024-02-26T11:55:31;99050.79;;;16.67;21.30
83483;BME280;73420;32.678;-85.380;2024-02-26T11:57:50;99047.11;;;17.01;19.92
83483;BME280;73420;32.678;-85.380;2024-02-26T12:00:23;99050.29;;;16.84;20.11
83483;BME280;73420;32.678;-85.380;2024-02-26T12:02:44;99054.67;;;16.87;19.81
83483;BME280;73420;32.678;-85.380;2024-02-26T12:05:10;99056.60;;;16.88;19.86
83483;BME280;73420;32.678;-85.380;2024-02-26T12:07:34;99056.31;;;16.90;20.67
83483;BME280;73420;32.678;-85.380;2024-02-26T12:12:29;99057.19;;;16.85;19.79
83483;BME280;73420;32.678;-85.380;2024-02-26T12:14:52;99060.68;;;16.72;21.39
83483;BME280;73420;32.678;-85.380;2024-02-26T12:17:19;99062.89;;;16.69;20.35
83483;BME280;73420;32.678;-85.380;2024-02-26T12:19:40;99063.34;;;16.85;19.89
83483;BME280;73420;32.678;-85.380;2024-02-26T12:22:07;99065.64;;;16.97;19.73
83483;BME280;73420;32.678;-85.380;2024-02-26T12:24:36;99066.81;;;17.26;19.85
83483;BME280;73420;32.678;-85.380;2024-02-26T12:26:56;99069.16;;;17.10;20.26
83483;BME280;73420;32.678;-85.380;2024-02-26T12:29:21;99068.78;;;17.24;19.58
83483;BME280;73420;32.678;-85.380;2024-02-26T12:31:47;99076.75;;;17.42;19.41
83483;BME280;73420;32.678;-85.380;2024-02-26T12:34:12;99081.11;;;17.30;19.82